createdAt,value
2018-08-04T00:07:12.109Z,51.6
2018-08-04T00:24:02.459Z,51.2
2018-08-04T00:57:42.394Z,52.4
2018-08-04T01:14:31.750Z,52.8
2018-08-04T01:31:21.051Z,53.2
2018-08-04T01:48:10.102Z,54.0
2018-08-04T02:04:58.901Z,54.4
2018-08-04T02:21:47.704Z,55.6
2018-08-04T02:38:36.234Z,56.0
2018-08-04T02:55:24.714Z,56.8
2018-08-04T03:12:13.012Z,57.2
2018-08-04T03:29:01.158Z,57.6
2018-08-04T03:45:48.847Z,58.4
2018-08-04T04:02:36.370Z,59.2
2018-08-04T04:19:24.028Z,59.2
2018-08-04T04:36:11.747Z,59.6
2018-08-04T04:52:59.486Z,60.0
2018-08-04T05:09:47.116Z,60.4
2018-08-04T05:26:35.322Z,60.8
2018-08-04T05:43:23.677Z,60.8
2018-08-04T06:00:12.281Z,61.2
2018-08-04T06:17:00.941Z,61.2
2018-08-04T06:27:06.367Z,61.6
2018-08-04T06:43:56.775Z,61.2
2018-08-04T07:17:35.598Z,60.8
2018-08-04T07:34:26.145Z,60.0
2018-08-04T07:51:16.831Z,60.0
2018-08-04T08:01:23.402Z,60.0
2018-08-04T08:24:59.744Z,56.8
2018-08-04T08:41:52.321Z,55.2
2018-08-04T08:52:00.047Z,52.8
2018-08-04T09:08:53.497Z,52.4
2018-08-04T09:17:20.668Z,50.4
2018-08-04T09:20:44.515Z,48.4
2018-08-04T09:37:38.520Z,49.6
2018-08-04T09:54:33.695Z,48.4
2018-08-04T10:11:29.245Z,47.6
2018-08-04T10:28:25.217Z,46.8
2018-08-04T10:40:16.770Z,46.8
2018-08-04T10:53:50.035Z,44.8
2018-08-04T11:10:46.685Z,44.8
2018-08-04T11:27:43.738Z,44.4
2018-08-04T11:43:01.293Z,44.0
2018-08-04T11:59:57.751Z,43.2
2018-08-04T12:16:56.212Z,42.8
2018-08-04T12:33:55.001Z,42.0
2018-08-04T12:50:53.889Z,41.2
2018-08-04T13:07:52.830Z,41.2
2018-08-04T13:18:04.212Z,40.4
2018-08-04T13:35:03.379Z,39.2
2018-08-04T13:52:02.362Z,39.2
2018-08-04T14:09:01.765Z,39.2
2018-08-04T14:26:00.742Z,39.2
2018-08-04T14:42:59.628Z,39.2
2018-08-04T14:53:11.013Z,40.0
2018-08-04T15:10:09.703Z,40.4
2018-08-04T15:27:08.175Z,40.4
2018-08-04T15:44:07.341Z,40.4
2018-08-04T16:01:05.520Z,40.0
2018-08-04T16:18:04.122Z,40.4
2018-08-04T16:35:02.491Z,41.2
2018-08-04T16:52:01.146Z,42.4
2018-08-04T17:03:53.622Z,44.0
2018-08-04T17:20:51.335Z,44.8
2018-08-04T17:37:49.613Z,45.2
2018-08-04T17:44:36.611Z,46.0
2018-08-04T17:58:09.981Z,47.2
2018-08-04T18:26:56.156Z,50.0
2018-08-04T18:43:50.149Z,52.0
2018-08-04T18:53:58.222Z,53.2
2018-08-04T19:10:51.324Z,55.2
2018-08-04T19:27:44.228Z,56.4
2018-08-04T19:44:35.530Z,57.6
2018-08-04T20:01:27.069Z,58.4
2018-08-04T20:18:18.159Z,59.2
2018-08-04T20:35:09.084Z,60.4
2018-08-04T20:51:59.181Z,61.2
2018-08-04T21:08:49.077Z,62.8
2018-08-04T21:25:38.598Z,63.6
2018-08-04T21:42:27.800Z,64.0
2018-08-04T21:59:16.900Z,64.8
2018-08-04T22:16:05.784Z,65.6
2018-08-04T22:32:54.408Z,66.0
2018-08-04T22:49:42.979Z,66.8
2018-08-04T23:06:31.335Z,67.6
2018-08-04T23:23:20.178Z,68.4
2018-08-04T23:40:07.580Z,68.8
2018-08-04T23:56:54.815Z,69.2
